Time;durP1;ratioP1;P1;durP2;ratioP2;P2;SDS_P1;SDS_P2;PMS_P1;PMS_P2;Temp;Humidity;BMP_temperature;BMP_pressure;BME280_temperature;BME280_humidity;BME280_pressure;Samples;Min_cycle;Max_cycle;Signal;HPM_P1;HPM_P2
2023/09/25 15:15:45;;;;;;;0.68;0.35;;;;;;;20.12;100.00;99977.22;7392834;19;20022;-49
2023/09/25 15:18:11;;;;;;;1.17;0.30;;;;;;;20.26;100.00;99975.97;7401911;19;20046;-49
2023/09/25 15:20:37;;;;;;;1.10;0.20;;;;;;;20.21;100.00;99974.00;7398837;19;20080;-49
2023/09/25 15:23:04;;;;;;;0.47;0.17;;;;;;;19.90;100.00;99971.91;7397111;19;20010;-49
2023/09/25 15:25:30;;;;;;;1.73;0.20;;;;;;;19.51;100.00;99976.03;7397452;19;20014;-49
2023/09/25 15:27:56;;;;;;;8.77;0.80;;;;;;;19.27;100.00;99978.94;7400419;19;20505;-49
2023/09/25 15:30:22;;;;;;;15.07;2.00;;;;;;;19.80;100.00;99987.72;7398492;19;20344;-49
2023/09/25 15:32:49;;;;;;;2.67;0.90;;;;;;;19.59;100.00;99982.63;7399672;19;20007;-49
2023/09/25 15:35:15;;;;;;;0.82;0.20;;;;;;;19.58;100.00;99986.75;7398708;19;20010;-49
2023/09/25 15:37:41;;;;;;;0.98;0.35;;;;;;;19.36;100.00;99992.69;7398845;19;20037;-48
2023/09/25 15:40:08;;;;;;;1.73;0.60;;;;;;;19.37;100.00;99982.94;7394777;19;20018;-48
2023/09/25 15:42:34;;;;;;;1.98;0.90;;;;;;;19.31;100.00;99987.09;7397323;19;20462;-49
2023/09/25 15:45:00;;;;;;;1.08;0.10;;;;;;;19.57;100.00;99985.22;7398443;19;20018;-49
2023/09/25 15:47:26;;;;;;;7.53;0.38;;;;;;;19.35;100.00;99979.88;7397664;19;20022;-48
2023/09/25 15:49:52;;;;;;;8.35;0.70;;;;;;;19.22;100.00;99985.41;7396434;19;20020;-49
2023/09/25 15:52:19;;;;;;;1.48;0.65;;;;;;;19.26;100.00;99979.44;7395295;19;20364;-49
2023/09/25 15:54:45;;;;;;;5.57;0.35;;;;;;;19.75;100.00;99983.69;7397538;19;20025;-49
2023/09/25 15:57:11;;;;;;;3.92;0.98;;;;;;;19.77;100.00;99983.94;7398554;19;20458;-49
2023/09/25 15:59:38;;;;;;;0.20;0.10;;;;;;;19.26;100.00;99988.69;7396485;19;20014;-50
2023/09/25 16:02:04;;;;;;;5.53;0.63;;;;;;;19.32;100.00;99991.44;7398537;19;20015;-50
2023/09/25 16:04:32;;;;;;;0.38;0.20;;;;;;;19.34;100.00;99994.50;7395225;19;20010;-49
2023/09/25 16:06:58;;;;;;;5.22;0.43;;;;;;;18.99;100.00;99998.25;7397101;19;20785;-50
2023/09/25 16:09:24;;;;;;;0.70;0.15;;;;;;;19.18;100.00;100006.75;7397841;19;20014;-50
2023/09/25 16:11:50;;;;;;;1.65;0.65;;;;;;;18.76;100.00;100005.41;7393468;19;20025;-50
2023/09/25 16:14:17;;;;;;;6.55;0.82;;;;;;;18.91;100.00;100011.41;7396792;19;20013;-49
2023/09/25 16:16:43;;;;;;;0.52;0.25;;;;;;;18.98;100.00;100013.66;7395900;19;20545;-50
2023/09/25 16:19:09;;;;;;;5.25;0.90;;;;;;;18.65;100.00;100017.59;7399875;19;20597;-50
2023/09/25 16:21:36;;;;;;;0.68;0.10;;;;;;;18.66;100.00;100012.72;7396250;19;20663;-50
2023/09/25 16:24:02;;;;;;;0.95;0.38;;;;;;;18.75;100.00;100013.13;7396767;19;20025;-50
2023/09/25 16:26:28;;;;;;;1.05;0.30;;;;;;;18.46;100.00;100007.50;7396575;19;20019;-50
2023/09/25 16:28:55;;;;;;;0.90;0.20;;;;;;;18.12;100.00;100007.78;7395129;19;20018;-50
2023/09/25 16:31:21;;;;;;;2.65;0.30;;;;;;;18.57;100.00;100004.59;7392628;19;20021;-50
2023/09/25 16:33:47;;;;;;;0.93;0.60;;;;;;;18.78;100.00;100011.28;7399158;19;20474;-50
2023/09/25 16:36:13;;;;;;;2.75;0.20;;;;;;;19.02;100.00;100013.34;7399644;19;20014;-50
2023/09/25 16:38:39;;;;;;;0.52;0.50;;;;;;;18.86;100.00;100010.19;7400170;19;20074;-50
2023/09/25 16:41:07;;;;;;;0.10;0.10;;;;;;;18.30;100.00;100014.03;7399633;19;20355;-50
2023/09/25 16:43:34;;;;;;;5.05;0.57;;;;;;;18.00;100.00;100017.56;7394115;19;20010;-50
2023/09/25 16:46:05;;;;;;;7.90;0.85;;;;;;;17.20;100.00;100019.75;7399516;19;20052;-50
2023/09/25 16:48:31;;;;;;;1.05;0.35;;;;;;;17.37;100.00;100017.66;7399716;19;20099;-50
2023/09/25 16:50:58;;;;;;;0.17;0.10;;;;;;;17.45;100.00;100026.31;7399164;19;20018;-50
2023/09/25 16:53:24;;;;;;;0.88;0.43;;;;;;;17.06;100.00;100014.44;7398331;19;20014;-54
2023/09/25 16:55:50;;;;;;;3.70;1.25;;;;;;;16.86;100.00;100023.19;7396691;19;20043;-54
2023/09/25 16:58:18;;;;;;;0.32;0.32;;;;;;;16.68;100.00;100030.13;7396773;19;20014;-54
2023/09/25 17:00:44;;;;;;;9.65;0.30;;;;;;;16.72;100.00;100027.81;7397823;19;20011;-54
2023/09/25 17:03:15;;;;;;;4.43;0.98;;;;;;;16.56;100.00;100039.84;7393304;19;20022;-54
2023/09/25 17:05:41;;;;;;;5.07;0.30;;;;;;;16.50;100.00;100028.59;7393387;19;20022;-54
2023/09/25 17:08:08;;;;;;;8.85;0.57;;;;;;;16.27;100.00;100040.31;7397044;19;20011;-54
2023/09/25 17:10:35;;;;;;;0.45;0.10;;;;;;;16.17;100.00;100041.88;7395023;19;20015;-54
2023/09/25 17:13:02;;;;;;;0.28;0.22;;;;;;;16.30;100.00;100042.91;7393709;19;20007;-54
2023/09/25 17:15:35;;;;;;;5.38;0.50;;;;;;;16.24;100.00;100047.72;7394023;19;20018;-54
2023/09/25 17:18:02;;;;;;;1.23;0.30;;;;;;;16.16;100.00;100038.28;7397114;19;20010;-50
2023/09/25 17:20:28;;;;;;;0.32;0.32;;;;;;;15.87;100.00;100041.56;7393775;19;20006;-50
2023/09/25 17:22:54;;;;;;;1.27;0.38;;;;;;;15.98;100.00;100047.22;7393882;19;20017;-50
2023/09/25 17:25:20;;;;;;;0.52;0.20;;;;;;;16.28;100.00;100048.28;7392823;19;20023;-50
2023/09/25 17:27:46;;;;;;;2.70;0.47;;;;;;;16.27;100.00;100046.72;7395543;19;20023;-51
2023/09/25 17:30:13;;;;;;;0.25;0.25;;;;;;;16.39;100.00;100048.28;7396284;19;20010;-51
2023/09/25 17:32:40;;;;;;;3.78;0.28;;;;;;;16.34;100.00;100051.84;7398102;19;20026;-51
2023/09/25 17:35:06;;;;;;;2.85;0.73;;;;;;;16.42;100.00;100052.84;7397031;19;20390;-51
2023/09/25 17:37:33;;;;;;;0.90;0.50;;;;;;;16.56;100.00;100051.09;7397031;19;20014;-51
2023/09/25 17:39:59;;;;;;;1.25;0.22;;;;;;;16.29;100.00;100049.78;7399790;19;20006;-51
2023/09/25 17:42:25;;;;;;;0.68;0.40;;;;;;;16.57;100.00;100050.59;7394482;19;20006;-51
2023/09/25 17:44:51;;;;;;;0.35;0.30;;;;;;;16.54;100.00;100048.03;7399247;19;20027;-51
2023/09/25 17:47:17;;;;;;;0.65;0.43;;;;;;;16.46;100.00;100052.59;7395991;19;20114;-51
2023/09/25 17:49:43;;;;;;;6.72;0.45;;;;;;;16.45;100.00;100057.47;7396177;19;20074;-51
2023/09/25 17:52:09;;;;;;;9.30;1.02;;;;;;;16.32;100.00;100057.22;7396523;19;20018;-51
2023/09/25 17:54:35;;;;;;;0.10;0.05;;;;;;;16.35;100.00;100055.44;7396346;19;20010;-51
2023/09/25 17:57:02;;;;;;;1.00;0.50;;;;;;;16.34;100.00;100065.91;7397907;19;20011;-52
2023/09/25 17:59:29;;;;;;;1.45;0.40;;;;;;;16.30;100.00;100062.56;7400476;19;20014;-51
2023/09/25 18:01:56;;;;;;;0.30;0.20;;;;;;;16.01;100.00;100051.03;7399396;19;20018;-51
2023/09/25 18:04:22;;;;;;;0.70;0.55;;;;;;;15.65;100.00;100058.34;7398570;19;20078;-51
2023/09/25 18:06:48;;;;;;;0.85;0.47;;;;;;;16.10;100.00;100062.03;7398011;19;20022;-51
2023/09/25 18:09:15;;;;;;;1.25;0.28;;;;;;;15.53;100.00;100051.16;7399331;19;20371;-51
2023/09/25 18:11:41;;;;;;;0.52;0.52;;;;;;;16.14;100.00;100066.13;7393436;19;20010;-51
2023/09/25 18:14:08;;;;;;;9.13;1.38;;;;;;;16.13;100.00;100056.19;7393090;19;20082;-51
2023/09/25 18:16:35;;;;;;;2.35;0.45;;;;;;;15.67;nan;100053.78;7394784;19;20021;-51
2023/09/25 18:19:03;;;;;;;0.57;0.57;;;;;;;15.69;nan;100056.06;7398276;19;20017;-52
2023/09/25 18:21:29;;;;;;;4.63;0.75;;;;;;;16.43;nan;100065.66;7397649;19;20015;-51
2023/09/25 18:23:58;;;;;;;2.53;0.70;;;;;;;24.69;nan;100050.78;7391814;19;20015;-52
2023/09/25 18:26:25;;;;;;;0.55;0.55;;;;;;;22.66;nan;100061.16;7393406;19;20015;-52
2023/09/25 18:28:51;;;;;;;0.90;0.73;;;;;;;17.15;nan;100067.63;7391409;19;20018;-52
2023/09/25 18:31:17;;;;;;;2.92;0.43;;;;;;;16.34;nan;100076.38;7393764;19;20043;-52
2023/09/25 18:33:43;;;;;;;3.30;0.50;;;;;;;15.46;nan;100079.72;7392675;19;20010;-51
2023/09/25 18:36:09;;;;;;;0.10;0.10;;;;;;;15.40;nan;100087.31;7392657;19;20367;-51
2023/09/25 18:38:35;;;;;;;0.10;0.10;;;;;;;15.27;nan;100089.81;7394346;19;20070;-51
2023/09/25 18:41:01;;;;;;;0.43;0.40;;;;;;;15.58;nan;100092.50;7393953;19;20458;-51
2023/09/25 18:43:28;;;;;;;1.05;0.43;;;;;;;16.11;nan;100098.06;7396565;19;20037;-51
2023/09/25 18:45:54;;;;;;;0.10;0.10;;;;;;;14.85;nan;100105.34;7393756;19;20015;-51
2023/09/25 18:48:20;;;;;;;1.00;0.80;;;;;;;14.89;nan;100096.69;7394252;19;20014;-51
2023/09/25 18:50:46;;;;;;;0.90;0.35;;;;;;;15.01;nan;100099.06;7392537;19;20462;-51
2023/09/25 18:53:12;;;;;;;8.77;0.93;;;;;;;14.82;nan;100108.38;7393769;19;20044;-51
2023/09/25 18:55:40;;;;;;;0.80;0.40;;;;;;;14.89;nan;100105.88;7396284;19;20014;-51
2023/09/25 18:58:06;;;;;;;0.40;0.22;;;;;;;14.72;nan;100113.41;7393681;19;20083;-51
2023/09/25 19:00:34;;;;;;;7.28;1.10;;;;;;;14.76;nan;100113.94;7392999;19;20335;-52
2023/09/25 19:03:01;;;;;;;1.35;0.40;;;;;;;14.60;nan;100110.97;7395633;19;20007;-51
2023/09/25 19:05:29;;;;;;;0.85;0.20;;;;;;;15.09;nan;100121.84;7392544;19;20062;-51
2023/09/25 19:07:55;;;;;;;1.35;0.38;;;;;;;15.52;nan;100119.81;7392732;19;20010;-51
2023/09/25 19:10:22;;;;;;;5.45;0.28;;;;;;;14.75;nan;100123.59;7395353;19;20044;-52
2023/09/25 19:12:49;;;;;;;0.43;0.40;;;;;;;14.66;nan;100117.44;7391928;19;20100;-51
2023/09/25 19:15:16;;;;;;;0.73;0.43;;;;;;;14.57;nan;100109.97;7393589;19;20038;-50
2023/09/25 19:17:43;;;;;;;2.45;0.30;;;;;;;14.64;nan;100112.31;7395710;19;20018;-50
2023/09/25 19:20:10;;;;;;;0.52;0.52;;;;;;;14.90;nan;100118.63;7393065;19;20038;-51
2023/09/25 19:22:36;;;;;;;2.40;0.30;;;;;;;14.96;nan;100116.66;7393436;19;20450;-51
2023/09/25 19:25:02;;;;;;;2.33;1.10;;;;;;;14.98;nan;100130.94;7392812;19;20018;-51
2023/09/25 19:27:29;;;;;;;3.90;0.40;;;;;;;15.05;nan;100129.72;7392819;19;20015;-52
2023/09/25 19:29:57;;;;;;;0.30;0.30;;;;;;;15.13;nan;100125.94;7390874;19;20013;-52
2023/09/25 19:32:27;;;;;;;0.25;0.08;;;;;;;14.76;nan;100122.34;7396406;19;20015;-51
2023/09/25 19:34:54;;;;;;;0.63;0.52;;;;;;;14.92;nan;100121.69;7390863;19;20014;-51
2023/09/25 19:37:22;;;;;;;0.63;0.30;;;;;;;15.61;nan;100113.97;7392463;19;20619;-50
2023/09/25 19:39:49;;;;;;;0.55;0.28;;;;;;;15.15;nan;100122.63;7394002;19;20014;-51
2023/09/25 19:42:16;;;;;;;1.55;0.35;;;;;;;14.95;nan;100126.31;7391343;19;20020;-51
2023/09/25 19:44:42;;;;;;;1.05;0.10;;;;;;;15.23;nan;100120.13;7391667;19;20376;-50
2023/09/25 19:47:09;;;;;;;0.20;0.10;;;;;;;15.25;nan;100123.97;7395113;19;20022;-50
2023/09/25 19:49:36;;;;;;;0.20;0.10;;;;;;;15.45;nan;100129.47;7398434;19;20014;-51
2023/09/25 19:52:02;;;;;;;0.90;0.32;;;;;;;15.84;nan;100127.59;7399153;19;20019;-53
2023/09/25 19:54:29;;;;;;;0.50;0.10;;;;;;;15.89;nan;100128.91;7399528;19;20042;-51
2023/09/25 19:56:55;;;;;;;5.15;0.55;;;;;;;15.79;nan;100127.56;7400371;19;20034;-51
2023/09/25 19:59:21;;;;;;;9.65;0.82;;;;;;;15.90;nan;100130.41;7399944;19;20217;-52
2023/09/25 20:01:48;;;;;;;0.10;0.10;;;;;;;14.94;nan;100141.59;7401321;19;20015;-51
2023/09/25 20:04:16;;;;;;;0.40;0.40;;;;;;;14.57;nan;100140.81;7400809;19;20041;-52
2023/09/25 20:06:42;;;;;;;0.43;0.40;;;;;;;14.41;nan;100138.59;7397338;19;20457;-51
2023/09/25 20:09:08;;;;;;;1.15;0.52;;;;;;;14.46;nan;100135.09;7399411;19;20405;-51
2023/09/25 20:11:34;;;;;;;0.13;0.05;;;;;;;14.52;nan;100135.91;7397301;19;20026;-51
2023/09/25 20:14:00;;;;;;;3.92;0.70;;;;;;;15.55;nan;100118.81;7398745;19;20014;-52
2023/09/25 20:16:26;;;;;;;8.68;1.00;;;;;;;15.35;nan;100121.72;7402811;19;20033;-51
2023/09/25 20:18:53;;;;;;;0.40;0.38;;;;;;;14.38;nan;100131.94;7398690;19;20469;-52
2023/09/25 20:21:21;;;;;;;0.10;0.10;;;;;;;14.14;nan;100133.47;7397843;19;20042;-50
2023/09/25 20:23:49;;;;;;;0.20;0.20;;;;;;;14.18;nan;100136.81;7399443;19;20011;-50
2023/09/25 20:26:15;;;;;;;0.35;0.35;;;;;;;14.17;nan;100130.44;7398964;19;20018;-50
2023/09/25 20:28:41;;;;;;;0.73;0.30;;;;;;;14.04;nan;100143.28;7402218;19;20085;-50
2023/09/25 20:31:08;;;;;;;0.50;0.10;;;;;;;14.02;nan;100135.38;7398516;19;20026;-51
2023/09/25 20:33:35;;;;;;;0.22;0.20;;;;;;;13.96;nan;100137.34;7398340;19;20011;-51
2023/09/25 20:36:03;;;;;;;1.30;0.40;;;;;;;13.95;nan;100123.81;7396776;19;20408;-50
2023/09/25 20:38:31;;;;;;;0.73;0.63;;;;;;;26.56;nan;100109.22;7397960;19;20007;-51
2023/09/25 20:40:57;;;;;;;0.10;0.00;;;;;;;30.03;nan;100101.75;7400920;19;20028;-51
2023/09/25 20:43:23;;;;;;;0.40;0.30;;;;;;;18.04;nan;100125.16;7398836;19;20450;-51
2023/09/25 20:45:50;;;;;;;0.98;0.08;;;;;;;16.79;nan;100116.53;7397972;19;20007;-51
2023/09/25 20:48:17;;;;;;;2.17;0.50;;;;;;;15.30;nan;100119.66;7397405;19;20011;-50
2023/09/25 20:50:43;;;;;;;0.10;0.10;;;;;;;15.56;nan;100114.72;7396277;19;20081;-50
2023/09/25 20:53:09;;;;;;;0.35;0.15;;;;;;;15.16;nan;100112.94;7399630;19;20488;-50
2023/09/25 20:55:36;;;;;;;0.17;0.17;;;;;;;15.27;nan;100113.00;7397578;19;20014;-50
2023/09/25 20:58:03;;;;;;;2.45;0.10;;;;;;;13.97;nan;100121.31;7394344;19;20010;-50
2023/09/25 21:00:29;;;;;;;1.35;0.90;;;;;;;13.98;nan;100126.41;7396749;19;20066;-50
2023/09/25 21:02:56;;;;;;;0.30;0.30;;;;;;;14.88;nan;100118.34;7400299;19;20028;-50
2023/09/25 21:05:25;;;;;;;0.35;0.20;;;;;;;14.44;nan;100115.94;7399937;19;20025;-50
2023/09/25 21:07:52;;;;;;;0.20;0.20;;;;;;;14.08;nan;100125.00;7394527;19;20022;-50
2023/09/25 21:10:18;;;;;;;0.32;0.17;;;;;;;14.02;nan;100115.00;7397982;19;20014;-50
2023/09/25 21:12:44;;;;;;;0.30;0.30;;;;;;;13.62;nan;100119.38;7396185;19;20031;-49
2023/09/25 21:15:10;;;;;;;0.47;0.47;;;;;;;14.04;nan;100110.44;7397866;19;20011;-50
2023/09/25 21:17:36;;;;;;;0.75;0.32;;;;;;;13.91;nan;100112.84;7395811;19;20013;-50
2023/09/25 21:20:03;;;;;;;0.10;0.10;;;;;;;13.31;nan;100110.06;7397236;19;20038;-50
2023/09/25 21:22:29;;;;;;;0.75;0.50;;;;;;;13.43;nan;100109.72;7396679;19;20046;-49
2023/09/25 21:24:55;;;;;;;0.40;0.22;;;;;;;13.30;nan;100109.28;7398013;19;20010;-50
2023/09/25 21:27:21;;;;;;;0.28;0.08;;;;;;;13.35;nan;100094.63;7396908;19;20010;-49
2023/09/25 21:29:47;;;;;;;0.10;0.10;;;;;;;13.15;nan;100097.38;7395825;19;20358;-49
2023/09/25 21:32:14;;;;;;;0.10;0.10;;;;;;;14.23;nan;100086.44;7398696;19;20014;-50
2023/09/25 21:34:40;;;;;;;0.55;0.43;;;;;;;13.61;nan;100101.06;7396939;19;20099;-49
2023/09/25 21:37:06;;;;;;;4.18;0.70;;;;;;;13.64;nan;100105.66;7396158;19;20026;-50
2023/09/25 21:39:32;;;;;;;1.33;0.55;;;;;;;13.28;nan;100100.59;7396578;19;20034;-50
2023/09/25 21:41:58;;;;;;;0.30;0.30;;;;;;;13.52;nan;100103.97;7396132;19;20480;-50
2023/09/25 21:44:25;;;;;;;4.05;0.85;;;;;;;13.30;nan;100114.88;7395484;19;20014;-50
2023/09/25 21:46:51;;;;;;;1.35;0.65;;;;;;;13.36;nan;100121.31;7397871;19;20470;-49
2023/09/25 21:49:17;;;;;;;1.38;0.63;;;;;;;13.52;nan;100101.19;7396108;19;20084;-50
2023/09/25 21:51:43;;;;;;;7.63;0.75;;;;;;;13.24;nan;100102.84;7393595;19;20006;-50
2023/09/25 21:54:11;;;;;;;0.20;0.20;;;;;;;14.12;nan;100105.19;7395051;19;20466;-50
2023/09/25 21:56:37;;;;;;;0.10;0.10;;;;;;;13.55;nan;100097.41;7394107;19;20021;-50
2023/09/25 21:59:04;;;;;;;0.75;0.50;;;;;;;13.61;nan;100091.88;7398646;19;20010;-50
2023/09/25 22:01:30;;;;;;;0.77;0.60;;;;;;;18.28;nan;100070.19;7396980;19;20007;-50
2023/09/25 22:03:56;;;;;;;0.17;0.17;;;;;;;17.99;nan;100083.69;7395241;19;20027;-49
2023/09/25 22:06:24;;;;;;;2.17;1.17;;;;;;;20.87;nan;100080.41;7395323;19;20363;-50
2023/09/25 22:08:50;;;;;;;0.20;0.10;;;;;;;14.83;nan;100079.84;7393888;19;20015;-50
2023/09/25 22:11:17;;;;;;;0.52;0.30;;;;;;;13.73;nan;100087.19;7398535;19;20014;-50
2023/09/25 22:13:43;;;;;;;12.00;0.80;;;;;;;13.53;nan;100080.34;7395652;19;20010;-50
2023/09/25 22:16:09;;;;;;;0.55;0.55;;;;;;;13.31;nan;100088.47;7393877;19;20006;-50
2023/09/25 22:18:40;;;;;;;0.95;0.10;;;;;;;13.17;nan;100083.69;7393412;19;20022;-50
2023/09/25 22:21:11;;;;;;;;;;;;;;;13.01;nan;100089.78;7395555;19;20081;-50
2023/09/25 22:23:38;;;;;;;1.00;0.47;;;;;;;12.89;nan;100096.47;7399016;19;19915;-50
2023/09/25 22:26:06;;;;;;;0.75;0.65;;;;;;;13.42;nan;100099.78;7395045;19;20011;-50
2023/09/25 22:28:34;;;;;;;1.55;0.82;;;;;;;12.81;nan;100090.50;7395050;19;20492;-50
2023/09/25 22:31:00;;;;;;;0.28;0.28;;;;;;;12.84;nan;100089.53;7394679;19;20028;-49
2023/09/25 22:33:26;;;;;;;1.75;0.38;;;;;;;12.83;nan;100081.63;7394928;19;20024;-49
2023/09/25 22:35:52;;;;;;;0.10;0.10;;;;;;;12.74;nan;100078.94;7398295;19;20006;-49
2023/09/25 22:38:19;;;;;;;5.38;0.85;;;;;;;12.68;nan;100070.50;7394150;19;20369;-49
2023/09/25 22:40:45;;;;;;;4.70;0.70;;;;;;;13.17;nan;100071.72;7394483;19;20018;-49
2023/09/25 22:43:11;;;;;;;0.20;0.10;;;;;;;17.00;nan;100053.09;7394102;19;20025;-49
2023/09/25 22:45:38;;;;;;;0.35;0.35;;;;;;;13.35;nan;100055.44;7388275;19;20015;-82
2023/09/25 22:48:04;;;;;;;1.02;0.73;;;;;;;12.65;nan;100065.09;7393806;19;20338;-81
2023/09/25 22:50:31;;;;;;;0.68;0.38;;;;;;;24.09;nan;100040.06;7389785;19;20090;-82
2023/09/25 22:52:57;;;;;;;1.33;0.50;;;;;;;24.84;nan;100047.19;7390510;19;20014;-82
2023/09/25 22:55:24;;;;;;;0.10;0.10;;;;;;;28.94;nan;100038.94;7389772;19;20030;-82
2023/09/25 22:57:50;;;;;;;0.80;0.35;;;;;;;17.26;nan;100057.09;7389106;19;20377;-82
2023/09/25 23:00:17;;;;;;;1.85;1.13;;;;;;;15.83;nan;100053.03;7394613;19;20061;-82
2023/09/25 23:02:45;;;;;;;1.95;0.52;;;;;;;17.91;nan;100040.44;7393176;19;20014;-88
2023/09/25 23:05:12;;;;;;;0.10;0.10;;;;;;;25.10;nan;100032.53;7389351;19;20044;-82
2023/09/25 23:07:41;;;;;;;0.17;0.17;;;;;;;23.40;nan;100037.50;7389019;19;20018;-83
2023/09/25 23:10:12;;;;;;;0.30;0.30;;;;;;;29.03;nan;100023.09;7390894;19;20015;-84
2023/09/25 23:12:38;;;;;;;0.13;0.10;;;;;;;20.49;nan;100035.78;7389677;19;20014;-84
2023/09/25 23:15:11;;;;;;;0.52;0.52;;;;;;;15.50;nan;100038.13;7389928;19;20025;-84
2023/09/25 23:17:41;;;;;;;0.30;0.13;;;;;;;13.35;nan;100044.25;7389443;19;20014;-84
2023/09/25 23:20:14;;;;;;;0.10;0.10;;;;;;;12.61;nan;100042.16;7389118;19;20021;-84
2023/09/25 23:22:45;;;;;;;0.35;0.10;;;;;;;11.60;nan;100038.88;7396551;19;20082;-84
2023/09/25 23:25:13;;;;;;;0.85;0.10;;;;;;;11.61;nan;100040.41;7393803;19;20344;-85
2023/09/25 23:27:39;;;;;;;0.50;0.50;;;;;;;10.91;nan;100039.25;7398150;19;20026;-84
2023/09/25 23:30:06;;;;;;;5.05;1.17;;;;;;;11.12;nan;100048.53;7397010;19;20022;-84
2023/09/25 23:32:32;;;;;;;0.88;0.30;;;;;;;11.02;nan;100039.44;7401386;19;20357;-84
2023/09/25 23:34:58;;;;;;;0.52;0.25;;;;;;;11.65;nan;100035.41;7396645;19;20011;-84
2023/09/25 23:37:24;;;;;;;3.60;0.52;;;;;;;11.18;nan;100036.25;7397163;19;20010;-84
2023/09/25 23:39:50;;;;;;;0.68;0.25;;;;;;;11.14;nan;100034.91;7399771;19;20019;-85
2023/09/25 23:42:16;;;;;;;4.05;0.98;;;;;;;11.05;nan;100026.59;7398017;19;20022;-84
2023/09/25 23:44:42;;;;;;;3.65;0.80;;;;;;;11.01;nan;100034.38;7396689;19;20606;-84
2023/09/25 23:47:08;;;;;;;0.40;0.40;;;;;;;12.02;nan;100014.31;7398195;19;20011;-85
2023/09/25 23:49:34;;;;;;;0.43;0.43;;;;;;;11.92;nan;100014.88;7398545;19;20027;-84
2023/09/25 23:52:01;;;;;;;0.40;0.20;;;;;;;11.02;nan;100010.84;7395583;19;20026;-84
2023/09/25 23:54:27;;;;;;;0.40;0.30;;;;;;;10.87;nan;100012.78;7396490;19;20052;-85
2023/09/25 23:56:53;;;;;;;3.72;0.20;;;;;;;10.67;nan;100002.22;7395120;19;20082;-81
2023/09/25 23:59:19;;;;;;;5.10;1.02;;;;;;;10.60;nan;100006.13;7396897;19;20268;-81
